createdAt,value
2022-08-27T00:03:09.245Z,97748.44
2022-08-27T00:08:14.063Z,97755.69
2022-08-27T00:13:16.759Z,97751.25
2022-08-27T00:18:22.557Z,97760.41
2022-08-27T00:23:25.667Z,97758.41
2022-08-27T00:28:30.686Z,97760.44
2022-08-27T00:33:33.584Z,97766.97
2022-08-27T00:38:38.558Z,97761.69
2022-08-27T00:43:50.757Z,97761.34
2022-08-27T00:48:57.036Z,97751.78
2022-08-27T00:54:00.423Z,97754.13
2022-08-27T00:59:03.758Z,97752.59
2022-08-27T01:04:06.657Z,97757.13
2022-08-27T01:09:13.963Z,97750.22
2022-08-27T01:14:18.007Z,97744.91
2022-08-27T01:19:35.182Z,97744.81
2022-08-27T01:24:45.636Z,97732.25
2022-08-27T01:29:49.295Z,97733.22
2022-08-27T01:34:52.904Z,97728.50
2022-08-27T01:39:59.057Z,97733.75
2022-08-27T01:45:18.166Z,97740.63
2022-08-27T01:50:31.257Z,97737.22
2022-08-27T01:55:33.843Z,97742.31
2022-08-27T02:00:39.678Z,97743.00
2022-08-27T02:05:44.946Z,97735.06
2022-08-27T02:10:49.051Z,97728.44
2022-08-27T02:15:51.913Z,97735.47
2022-08-27T02:20:54.550Z,97729.81
2022-08-27T02:25:57.322Z,97733.81
2022-08-27T02:31:00.892Z,97739.53
2022-08-27T02:36:04.213Z,97734.72
2022-08-27T02:41:08.770Z,97735.28
2022-08-27T02:46:12.172Z,97742.03
2022-08-27T02:51:14.832Z,97734.09
2022-08-27T02:56:21.677Z,97741.19
2022-08-27T03:01:24.660Z,97743.09
2022-08-27T03:06:27.379Z,97736.53
2022-08-27T03:11:31.992Z,97738.03
2022-08-27T03:16:36.666Z,97741.69
2022-08-27T03:21:39.196Z,97736.75
2022-08-27T03:26:41.791Z,97738.03
2022-08-27T03:31:55.633Z,97739.53
2022-08-27T03:37:00.370Z,97738.53
2022-08-27T03:42:03.044Z,97734.16
2022-08-27T03:47:05.630Z,97735.59
2022-08-27T03:52:09.052Z,97735.44
2022-08-27T03:57:12.258Z,97735.63
2022-08-27T04:02:16.388Z,97732.59
2022-08-27T04:07:19.279Z,97728.97
2022-08-27T04:12:21.781Z,97723.66
2022-08-27T04:17:24.523Z,97727.22
2022-08-27T04:22:28.088Z,97730.16
2022-08-27T04:27:32.071Z,97740.78
2022-08-27T04:32:37.063Z,97735.16
2022-08-27T04:37:40.405Z,97738.22
2022-08-27T04:42:42.966Z,97736.53
2022-08-27T04:47:45.466Z,97734.59
2022-08-27T04:52:48.068Z,97731.06
2022-08-27T04:57:52.449Z,97738.72
2022-08-27T05:02:55.326Z,97740.09
2022-08-27T05:07:58.333Z,97739.06
2022-08-27T05:13:00.931Z,97736.97
2022-08-27T05:18:04.036Z,97741.16
2022-08-27T05:23:06.615Z,97736.50
2022-08-27T05:28:10.777Z,97729.44
2022-08-27T05:33:15.536Z,97724.38
2022-08-27T05:38:18.900Z,97725.03
2022-08-27T05:43:21.378Z,97727.16
2022-08-27T05:48:23.907Z,97728.63
2022-08-27T05:53:26.732Z,97729.94
2022-08-27T05:58:47.703Z,97737.16
2022-08-27T06:03:52.824Z,97736.34
2022-08-27T06:08:55.911Z,97736.22
2022-08-27T06:13:58.630Z,97751.84
2022-08-27T06:19:01.160Z,97750.50
2022-08-27T06:24:03.851Z,97752.59
2022-08-27T06:29:07.912Z,97750.50
2022-08-27T06:34:11.429Z,97756.56
2022-08-27T06:39:17.091Z,97755.59
2022-08-27T06:44:21.588Z,97756.09
2022-08-27T06:49:24.221Z,97755.88
2022-08-27T06:54:27.230Z,97752.69
2022-08-27T06:59:30.432Z,97758.44
2022-08-27T07:04:33.091Z,97756.47
2022-08-27T07:09:35.848Z,97752.09
2022-08-27T07:14:38.617Z,97757.25
2022-08-27T07:19:41.568Z,97752.34
2022-08-27T07:24:44.245Z,97769.91
2022-08-27T07:29:46.890Z,97768.13
2022-08-27T07:34:49.937Z,97766.63
2022-08-27T07:39:52.590Z,97774.97
2022-08-27T07:44:55.226Z,97777.91
2022-08-27T07:49:58.808Z,97787.81
2022-08-27T07:55:01.607Z,97787.38
2022-08-27T08:00:06.155Z,97782.31
2022-08-27T08:05:16.740Z,97791.09
2022-08-27T08:10:23.436Z,97796.97
2022-08-27T08:15:26.145Z,97799.09
2022-08-27T08:20:56.507Z,97794.66
2022-08-27T08:25:51.899Z,97799.69
2022-08-27T08:30:55.766Z,97802.66
2022-08-27T08:36:10.814Z,97813.88
2022-08-27T08:41:43.621Z,97813.25
2022-08-27T08:46:56.801Z,97819.56
2022-08-27T08:52:19.243Z,97825.56
2022-08-27T08:57:40.862Z,97825.00
2022-08-27T09:02:50.591Z,97820.78
2022-08-27T09:13:46.704Z,97834.00
2022-08-27T09:18:52.434Z,97818.34
2022-08-27T09:24:07.264Z,97826.47
2022-08-27T09:29:16.100Z,97828.13
2022-08-27T09:34:18.689Z,97827.31
2022-08-27T09:39:34.377Z,97825.28
2022-08-27T09:44:52.995Z,97821.53
2022-08-27T09:50:10.012Z,97829.47
2022-08-27T09:55:12.802Z,97828.03
2022-08-27T10:00:17.244Z,97829.31
2022-08-27T10:05:38.636Z,97822.47
2022-08-27T10:10:49.677Z,97823.75
2022-08-27T10:16:15.214Z,97815.03
2022-08-27T10:21:20.528Z,97812.16
2022-08-27T10:26:38.799Z,97817.84
2022-08-27T10:32:10.606Z,97814.91
2022-08-27T10:37:45.817Z,97826.44
2022-08-27T10:43:09.813Z,97835.63
2022-08-27T10:48:31.146Z,97836.25
2022-08-27T10:53:44.219Z,97836.69
2022-08-27T10:59:24.394Z,97841.38
2022-08-27T11:04:35.876Z,97847.41
2022-08-27T11:09:54.920Z,97843.69
2022-08-27T11:15:22.236Z,97845.78
2022-08-27T11:20:35.044Z,97838.06
2022-08-27T11:26:07.637Z,97843.91
2022-08-27T11:31:35.437Z,97850.09
2022-08-27T11:36:47.618Z,97843.44
2022-08-27T11:42:05.744Z,97841.50
2022-08-27T11:47:18.563Z,97835.19
2022-08-27T11:52:29.318Z,97828.19
2022-08-27T11:57:34.744Z,97827.25
2022-08-27T12:02:37.649Z,97822.22
2022-08-27T12:07:45.240Z,97823.84
2022-08-27T12:13:02.794Z,97824.69
2022-08-27T12:18:36.776Z,97822.72
2022-08-27T12:23:45.249Z,97815.13
2022-08-27T12:28:47.786Z,97813.09
2022-08-27T12:33:55.004Z,97813.69
2022-08-27T12:39:02.893Z,97811.09
2022-08-27T12:44:07.730Z,97822.94
2022-08-27T12:49:38.145Z,97821.28
2022-08-27T12:54:55.072Z,97826.94
2022-08-27T13:00:15.570Z,97817.22
2022-08-27T13:05:22.878Z,97812.72
2022-08-27T13:10:29.490Z,97811.25
2022-08-27T13:15:34.226Z,97797.03
2022-08-27T13:20:39.055Z,97805.38
2022-08-27T13:25:41.812Z,97805.09
2022-08-27T13:30:47.433Z,97814.84
2022-08-27T13:35:50.999Z,97808.84
2022-08-27T13:41:08.410Z,97817.50
2022-08-27T13:46:15.699Z,97804.25
2022-08-27T13:51:32.998Z,97813.91
2022-08-27T13:57:03.713Z,97791.97
2022-08-27T14:02:12.692Z,97791.91
2022-08-27T14:07:21.167Z,97790.50
2022-08-27T14:12:33.817Z,97782.00
2022-08-27T14:17:38.347Z,97781.19
2022-08-27T14:22:40.875Z,97790.09
2022-08-27T14:27:52.891Z,97785.00
2022-08-27T14:33:01.060Z,97788.75
2022-08-27T14:38:23.957Z,97781.47
2022-08-27T14:43:26.935Z,97783.22
2022-08-27T14:48:32.491Z,97780.56
2022-08-27T14:53:35.079Z,97780.88
2022-08-27T14:58:37.781Z,97779.81
2022-08-27T15:03:49.855Z,97781.00
2022-08-27T15:08:53.184Z,97778.22
2022-08-27T15:13:58.661Z,97785.41
2022-08-27T15:19:02.274Z,97781.72
2022-08-27T15:24:13.184Z,97780.63
2022-08-27T15:29:16.397Z,97781.72
2022-08-27T15:34:19.058Z,97783.22
2022-08-27T15:39:21.560Z,97780.00
2022-08-27T15:44:24.041Z,97776.78
2022-08-27T15:49:26.631Z,97774.09
2022-08-27T15:54:29.688Z,97769.81
2022-08-27T15:59:33.241Z,97768.59
2022-08-27T16:04:36.619Z,97779.31
2022-08-27T16:09:39.722Z,97775.13
2022-08-27T16:14:42.292Z,97777.13
2022-08-27T16:19:44.940Z,97781.97
2022-08-27T16:24:47.532Z,97782.31
2022-08-27T16:29:51.073Z,97786.59
2022-08-27T16:34:55.803Z,97789.38
2022-08-27T16:39:58.995Z,97779.31
2022-08-27T16:45:03.484Z,97785.31
2022-08-27T16:50:26.317Z,97780.16
2022-08-27T16:55:32.585Z,97788.63
2022-08-27T17:00:38.897Z,97793.66
2022-08-27T17:05:41.369Z,97791.22
2022-08-27T17:10:47.576Z,97789.88
2022-08-27T17:15:53.059Z,97794.28
2022-08-27T17:20:57.471Z,97794.13
2022-08-27T17:26:00.759Z,97800.91
2022-08-27T17:31:03.475Z,97802.75
2022-08-27T17:36:08.041Z,97804.84
2022-08-27T17:41:13.521Z,97811.69
2022-08-27T17:46:16.208Z,97803.50
2022-08-27T17:51:21.041Z,97798.22
2022-08-27T17:56:24.024Z,97797.88
2022-08-27T18:01:32.468Z,97796.25
2022-08-27T18:06:35.455Z,97787.66
2022-08-27T18:11:39.865Z,97798.44
2022-08-27T18:16:42.425Z,97810.88
2022-08-27T18:21:46.489Z,97815.03
2022-08-27T18:26:49.760Z,97825.44
2022-08-27T18:31:52.458Z,97836.63
2022-08-27T18:36:54.978Z,97842.72
2022-08-27T18:41:57.584Z,97844.44
2022-08-27T18:47:00.138Z,97848.66
2022-08-27T18:52:03.253Z,97862.63
2022-08-27T18:57:05.867Z,97862.59
2022-08-27T19:02:17.955Z,97863.84
2022-08-27T19:07:21.580Z,97863.00
2022-08-27T19:12:24.397Z,97868.72
2022-08-27T19:17:33.348Z,97880.56
2022-08-27T19:22:36.035Z,97887.22
2022-08-27T19:27:38.748Z,97880.03
2022-08-27T19:32:41.309Z,97883.31
2022-08-27T19:37:52.996Z,97897.38
2022-08-27T19:42:56.108Z,97898.41
2022-08-27T19:48:00.172Z,97898.88
2022-08-27T19:53:02.969Z,97894.41
2022-08-27T19:58:05.557Z,97898.94
2022-08-27T20:03:09.554Z,97895.31
2022-08-27T20:08:12.784Z,97899.50
2022-08-27T20:13:15.984Z,97901.16
2022-08-27T20:18:19.268Z,97900.66
2022-08-27T20:23:22.104Z,97903.38
2022-08-27T20:28:43.501Z,97913.84
2022-08-27T20:33:46.925Z,97903.59
2022-08-27T20:38:49.695Z,97903.56
2022-08-27T20:43:52.533Z,97897.44
2022-08-27T20:48:56.644Z,97902.59
2022-08-27T20:53:59.129Z,97897.22
2022-08-27T20:59:20.334Z,97897.59
2022-08-27T21:04:22.858Z,97903.16
2022-08-27T21:09:25.720Z,97909.56
2022-08-27T21:14:28.446Z,97913.75
2022-08-27T21:19:33.411Z,97911.91
2022-08-27T21:24:36.036Z,97912.66
2022-08-27T21:29:38.604Z,97914.84
2022-08-27T21:34:41.944Z,97916.31
2022-08-27T21:39:44.967Z,97915.41
2022-08-27T21:44:47.451Z,97916.97
2022-08-27T21:49:50.500Z,97919.19
2022-08-27T21:54:53.091Z,97930.28
2022-08-27T21:59:55.662Z,97919.50
2022-08-27T22:04:58.234Z,97919.75
2022-08-27T22:10:00.894Z,97919.84
2022-08-27T22:15:05.134Z,97917.38
2022-08-27T22:20:09.857Z,97910.44
2022-08-27T22:25:13.401Z,97915.44
2022-08-27T22:30:15.960Z,97909.13
2022-08-27T22:35:20.069Z,97910.81
2022-08-27T22:40:25.266Z,97908.50
2022-08-27T22:45:29.302Z,97915.78
2022-08-27T22:50:31.860Z,97913.63
2022-08-27T22:55:34.638Z,97910.28
2022-08-27T23:00:38.451Z,97920.03
2022-08-27T23:05:41.810Z,97907.69
2022-08-27T23:10:45.033Z,97901.63
2022-08-27T23:15:47.592Z,97906.09
2022-08-27T23:20:50.084Z,97907.13
2022-08-27T23:26:11.138Z,97900.22
2022-08-27T23:31:14.479Z,97898.53
2022-08-27T23:36:17.032Z,97899.81
2022-08-27T23:41:19.616Z,97913.00
2022-08-27T23:46:22.205Z,97909.41
2022-08-27T23:51:25.535Z,97915.47
2022-08-27T23:56:29.930Z,97919.50
